Time;durP1;ratioP1;P1;durP2;ratioP2;P2;SDS_P1;SDS_P2;PMS_P1;PMS_P2;Temp;Humidity;BMP_temperature;BMP_pressure;BME280_temperature;BME280_humidity;BME280_pressure;Samples;Min_cycle;Max_cycle;Signal;HPM_P1;HPM_P2
2022/09/21 00:01:16;;;;;;;6.03;2.20;;;15.10;66.20;;;;;;5042318;28;20216;-76
2022/09/21 00:03:45;;;;;;;4.43;1.87;;;15.10;66.30;;;;;;5044772;28;20306;-77
2022/09/21 00:06:16;;;;;;;3.43;2.03;;;15.00;66.30;;;;;;5043226;28;20192;-76
2022/09/21 00:08:45;;;;;;;3.03;1.73;;;15.00;66.50;;;;;;5039153;28;20245;-76
2022/09/21 00:11:15;;;;;;;7.73;2.00;;;15.00;66.60;;;;;;5036824;28;20858;-76
2022/09/21 00:13:45;;;;;;;8.70;2.13;;;15.00;66.70;;;;;;5051901;28;20314;-76
2022/09/21 00:16:16;;;;;;;7.10;2.20;;;15.00;66.90;;;;;;5043735;28;20199;-77
2022/09/21 00:18:44;;;;;;;3.70;2.10;;;15.00;66.90;;;;;;5047923;28;20219;-76
2022/09/21 00:21:15;;;;;;;7.10;1.80;;;14.90;66.90;;;;;;5046511;28;20274;-76
2022/09/21 00:23:44;;;;;;;5.63;2.40;;;14.90;67.00;;;;;;5046627;28;20273;-76
2022/09/21 00:26:14;;;;;;;7.43;2.10;;;14.90;67.00;;;;;;5038177;28;20184;-76
2022/09/21 00:28:43;;;;;;;9.03;2.00;;;14.90;67.10;;;;;;5045860;28;20214;-76
2022/09/21 00:31:13;;;;;;;7.03;2.33;;;14.90;67.20;;;;;;5046767;28;20202;-77
2022/09/21 00:33:43;;;;;;;4.43;2.00;;;14.90;67.10;;;;;;5036260;28;20223;-76
2022/09/21 00:36:13;;;;;;;4.50;1.83;;;14.90;67.20;;;;;;5038983;28;20196;-77
2022/09/21 00:38:42;;;;;;;5.17;1.90;;;14.90;67.20;;;;;;5045137;28;20293;-76
2022/09/21 00:41:13;;;;;;;9.60;2.93;;;14.80;67.30;;;;;;5044386;28;20219;-76
2022/09/21 00:43:46;;;;;;;6.47;2.10;;;14.80;67.40;;;;;;5051687;28;20183;-76
2022/09/21 00:46:17;;;;;;;4.03;1.97;;;14.80;67.50;;;;;;5041230;28;20273;-76
2022/09/21 00:48:47;;;;;;;3.53;2.00;;;14.80;67.60;;;;;;5045342;28;20226;-76
2022/09/21 00:51:15;;;;;;;5.00;2.57;;;14.70;67.70;;;;;;5037985;28;20628;-76
2022/09/21 00:53:44;;;;;;;5.50;2.10;;;14.70;67.70;;;;;;5050011;28;20802;-76
2022/09/21 00:56:14;;;;;;;6.80;2.30;;;14.70;67.70;;;;;;5043790;28;20241;-77
2022/09/21 00:58:47;;;;;;;6.17;2.63;;;14.60;67.80;;;;;;5047126;28;20227;-76
2022/09/21 01:01:17;;;;;;;6.50;2.40;;;14.60;67.90;;;;;;5041372;28;20291;-76
2022/09/21 01:03:49;;;;;;;4.53;1.87;;;14.60;68.00;;;;;;5048463;28;20183;-77
2022/09/21 01:06:19;;;;;;;6.25;2.67;;;14.60;68.00;;;;;;5046150;28;20455;-76
2022/09/21 01:08:51;;;;;;;9.90;2.60;;;14.50;69.40;;;;;;5044248;28;20187;-76
2022/09/21 01:11:37;;;;;;;5.33;1.90;;;14.50;69.20;;;;;;5046235;28;20203;-76
2022/09/21 01:14:26;;;;;;;7.70;2.37;;;14.50;69.10;;;;;;5040650;28;20257;-75
2022/09/21 01:17:02;;;;;;;3.87;2.00;;;14.50;69.10;;;;;;5045455;28;20239;-76
2022/09/21 01:19:54;;;;;;;4.37;2.20;;;14.50;69.10;;;;;;5044313;28;20244;-76
2022/09/21 01:22:36;;;;;;;4.43;2.03;;;14.50;69.10;;;;;;5038748;28;20644;-76
2022/09/21 01:25:16;;;;;;;6.87;2.50;;;14.50;69.10;;;;;;5047010;28;20296;-76
2022/09/21 01:28:06;;;;;;;4.67;2.00;;;14.50;69.00;;;;;;5040164;28;20269;-76
2022/09/21 01:30:40;;;;;;;5.87;2.00;;;14.50;69.10;;;;;;5048790;28;20281;-76
2022/09/21 01:33:21;;;;;;;4.87;2.17;;;14.50;69.10;;;;;;5047057;28;20218;-76
2022/09/21 01:35:55;;;;;;;6.23;2.67;;;14.50;69.10;;;;;;5046053;28;20234;-76
2022/09/21 01:38:26;;;;;;;6.00;2.30;;;14.50;69.50;;;;;;5046352;28;20225;-76
2022/09/21 01:41:00;;;;;;;5.60;2.13;;;14.50;69.40;;;;;;5054268;28;20246;-76
2022/09/21 01:43:32;;;;;;;3.77;2.13;;;14.50;69.70;;;;;;5046999;28;20617;-76
2022/09/21 01:46:05;;;;;;;4.47;2.03;;;14.50;69.70;;;;;;5049058;28;20246;-76
2022/09/21 01:48:38;;;;;;;4.80;2.20;;;14.60;69.70;;;;;;5040334;28;20233;-76
2022/09/21 01:51:10;;;;;;;5.77;2.90;;;14.60;69.80;;;;;;5041325;28;20270;-76
2022/09/21 01:53:42;;;;;;;7.90;2.70;;;14.60;69.70;;;;;;5044279;28;20214;-76
2022/09/21 01:56:15;;;;;;;6.53;2.53;;;14.60;69.80;;;;;;5043979;28;20191;-76
2022/09/21 01:58:50;;;;;;;8.13;2.30;;;14.60;69.90;;;;;;5046931;28;20636;-75
2022/09/21 02:01:23;;;;;;;13.30;2.50;;;14.60;69.90;;;;;;5034297;28;20603;-76
2022/09/21 02:03:56;;;;;;;4.50;2.00;;;14.70;70.20;;;;;;5041070;28;20621;-76
2022/09/21 02:06:26;;;;;;;8.20;2.53;;;14.70;70.30;;;;;;5044345;28;20281;-76
2022/09/21 02:08:55;;;;;;;4.77;2.50;;;14.60;70.60;;;;;;5038498;28;20200;-77
2022/09/21 02:11:23;;;;;;;4.97;2.40;;;14.70;70.60;;;;;;5039835;28;20230;-76
2022/09/21 02:13:55;;;;;;;5.73;2.43;;;14.70;70.50;;;;;;5040704;28;20276;-77
2022/09/21 02:16:38;;;;;;;8.80;2.53;;;14.70;71.30;;;;;;5040783;28;20188;-76
2022/09/21 02:19:14;;;;;;;5.87;2.50;;;14.70;70.40;;;;;;5043614;28;20187;-76
2022/09/21 02:21:53;;;;;;;8.03;2.70;;;14.80;70.30;;;;;;5041041;28;20226;-76
2022/09/21 02:24:30;;;;;;;7.47;2.50;;;14.80;70.30;;;;;;5043647;28;20309;-75
2022/09/21 02:27:05;;;;;;;5.60;2.53;;;14.80;70.30;;;;;;5045755;28;20630;-76
2022/09/21 02:29:45;;;;;;;7.37;2.80;;;14.90;70.30;;;;;;5039413;28;20635;-76
2022/09/21 02:32:25;;;;;;;8.77;2.40;;;14.90;70.30;;;;;;5043284;28;20191;-76
2022/09/21 02:35:02;;;;;;;8.07;2.87;;;14.90;70.20;;;;;;5035445;28;20710;-76
2022/09/21 02:37:37;;;;;;;9.40;2.80;;;14.90;70.30;;;;;;5047404;28;20218;-76
2022/09/21 02:40:14;;;;;;;5.80;2.60;;;14.90;70.30;;;;;;5036650;28;20190;-76
2022/09/21 02:42:46;;;;;;;4.80;2.47;;;15.00;70.40;;;;;;5042335;28;20190;-76
2022/09/21 02:45:20;;;;;;;11.27;2.87;;;15.00;70.50;;;;;;5040962;28;21538;-76
2022/09/21 02:47:55;;;;;;;8.17;3.17;;;15.00;70.50;;;;;;5038502;28;20241;-76
2022/09/21 02:50:27;;;;;;;8.20;2.87;;;15.00;70.50;;;;;;5044737;28;20236;-76
2022/09/21 02:52:56;;;;;;;6.13;2.73;;;15.00;70.50;;;;;;5052226;28;20274;-76
2022/09/21 02:55:26;;;;;;;5.57;2.47;;;15.00;70.50;;;;;;5042044;28;20199;-76
2022/09/21 02:57:56;;;;;;;9.40;2.47;;;15.10;70.60;;;;;;5038539;28;20238;-76
2022/09/21 03:00:24;;;;;;;9.03;3.43;;;15.10;70.60;;;;;;5043293;28;20277;-76
2022/09/21 03:02:54;;;;;;;7.93;2.77;;;15.10;70.70;;;;;;5048586;28;20233;-77
2022/09/21 03:05:22;;;;;;;6.43;2.70;;;15.10;70.70;;;;;;5047662;28;20674;-76
2022/09/21 03:07:51;;;;;;;6.53;2.70;;;15.10;70.60;;;;;;5042335;28;20732;-76
2022/09/21 03:10:19;;;;;;;9.67;3.10;;;15.10;70.60;;;;;;5047787;28;20210;-75
2022/09/21 03:12:47;;;;;;;6.70;2.70;;;15.10;70.60;;;;;;5038275;28;20253;-76
2022/09/21 03:15:17;;;;;;;8.10;2.43;;;15.20;70.60;;;;;;5046051;28;20222;-76
2022/09/21 03:17:45;;;;;;;6.53;2.97;;;15.20;70.60;;;;;;5046927;28;20226;-75
2022/09/21 03:20:15;;;;;;;8.33;2.47;;;15.20;70.60;;;;;;5036300;28;20231;-76
2022/09/21 03:22:43;;;;;;;6.73;2.50;;;15.20;70.70;;;;;;5044783;28;20219;-76
2022/09/21 03:25:12;;;;;;;9.73;2.67;;;15.20;70.60;;;;;;5045355;28;20215;-76
2022/09/21 03:27:41;;;;;;;4.53;2.33;;;15.20;70.60;;;;;;5050533;28;20195;-76
2022/09/21 03:30:10;;;;;;;4.43;2.43;;;15.20;70.60;;;;;;5037852;28;20735;-77
2022/09/21 03:32:39;;;;;;;5.27;2.50;;;15.20;70.50;;;;;;5044239;28;20191;-76
2022/09/21 03:35:08;;;;;;;6.47;2.77;;;15.20;70.50;;;;;;5050971;28;20194;-76
2022/09/21 03:37:38;;;;;;;11.87;3.13;;;15.20;70.50;;;;;;5050603;28;20183;-76
2022/09/21 03:40:10;;;;;;;5.97;2.60;;;15.10;70.50;;;;;;5048940;28;20225;-76
2022/09/21 03:42:39;;;;;;;8.00;2.80;;;15.20;70.60;;;;;;5060210;28;20192;-76
2022/09/21 03:45:08;;;;;;;10.83;2.80;;;15.10;70.60;;;;;;5045821;28;20184;-76
2022/09/21 03:47:37;;;;;;;6.57;2.33;;;15.20;70.70;;;;;;5039129;28;20282;-76
2022/09/21 03:50:07;;;;;;;7.47;2.70;;;15.20;70.60;;;;;;5047285;28;20535;-75
2022/09/21 03:52:39;;;;;;;6.43;2.37;;;15.20;70.90;;;;;;5048140;28;20199;-76
2022/09/21 03:55:09;;;;;;;6.20;2.40;;;15.20;70.90;;;;;;5040582;28;20227;-76
2022/09/21 03:57:38;;;;;;;4.43;2.40;;;15.20;71.00;;;;;;5044737;28;20191;-76
2022/09/21 04:00:09;;;;;;;8.17;2.93;;;15.20;70.90;;;;;;5053205;28;20663;-76
2022/09/21 04:02:39;;;;;;;11.43;2.50;;;15.20;70.90;;;;;;5036954;28;20627;-76
2022/09/21 04:05:08;;;;;;;7.83;2.37;;;15.20;70.90;;;;;;5038791;28;20199;-76
2022/09/21 04:07:39;;;;;;;4.27;2.23;;;15.20;70.90;;;;;;5041809;28;20246;-76
2022/09/21 04:10:11;;;;;;;7.23;2.43;;;15.20;71.00;;;;;;5049175;28;20547;-76
2022/09/21 04:12:42;;;;;;;8.53;2.77;;;15.20;71.90;;;;;;5038744;28;20214;-77
2022/09/21 04:15:13;;;;;;;10.17;2.87;;;15.20;71.20;;;;;;5039315;28;20192;-77
2022/09/21 04:17:41;;;;;;;16.33;2.90;;;15.20;71.30;;;;;;5039854;28;20282;-76
2022/09/21 04:20:10;;;;;;;6.07;2.70;;;15.20;71.30;;;;;;5050127;28;20223;-75
2022/09/21 04:22:40;;;;;;;7.30;2.60;;;15.20;71.40;;;;;;5048260;28;20249;-75
2022/09/21 04:25:11;;;;;;;7.03;2.50;;;15.20;71.50;;;;;;5058939;28;20194;-76
2022/09/21 04:27:40;;;;;;;6.40;2.50;;;15.20;71.50;;;;;;5052986;28;20223;-75
2022/09/21 04:30:11;;;;;;;5.67;2.33;;;15.20;71.50;;;;;;5052278;28;20202;-76
2022/09/21 04:32:43;;;;;;;6.20;2.30;;;15.20;71.50;;;;;;5048177;28;20183;-76
2022/09/21 04:35:11;;;;;;;13.27;3.33;;;15.20;71.60;;;;;;5054101;28;20305;-76
2022/09/21 04:37:41;;;;;;;11.20;2.67;;;15.20;71.70;;;;;;5045465;28;20595;-76
2022/09/21 04:40:10;;;;;;;9.03;2.20;;;15.20;71.80;;;;;;5051124;28;20281;-75
2022/09/21 04:42:38;;;;;;;5.87;2.43;;;15.20;71.90;;;;;;5046854;28;20183;-76
2022/09/21 04:45:07;;;;;;;8.00;2.53;;;15.20;71.80;;;;;;5047049;28;20213;-76
2022/09/21 04:47:36;;;;;;;10.37;2.40;;;15.20;71.90;;;;;;5045677;28;20725;-76
2022/09/21 04:50:04;;;;;;;7.33;2.70;;;15.30;72.00;;;;;;5041383;28;20195;-76
2022/09/21 04:52:33;;;;;;;10.20;2.70;;;15.30;72.10;;;;;;5050176;28;20222;-76
2022/09/21 04:55:03;;;;;;;6.33;2.50;;;15.30;72.10;;;;;;5046669;28;20623;-76
2022/09/21 04:57:31;;;;;;;11.27;3.00;;;15.30;72.30;;;;;;5047215;28;20647;-75
2022/09/21 04:59:59;;;;;;;9.07;2.83;;;15.30;72.20;;;;;;5044867;28;20293;-78
2022/09/21 05:02:28;;;;;;;9.53;2.43;;;15.30;72.30;;;;;;5048444;28;20219;-76
2022/09/21 05:04:56;;;;;;;8.17;2.30;;;15.30;72.80;;;;;;5048418;28;20235;-75
2022/09/21 05:07:24;;;;;;;8.77;2.83;;;15.30;72.80;;;;;;5044263;28;20239;-76
2022/09/21 05:10:03;;;;;;;4.03;2.10;;;15.30;72.90;;;;;;5051814;28;20207;-75
2022/09/21 05:12:35;;;;;;;6.30;2.27;;;15.30;72.70;;;;;;5049139;28;20205;-75
2022/09/21 05:15:09;;;;;;;7.33;2.17;;;15.30;72.60;;;;;;5043423;28;20187;-75
2022/09/21 05:17:37;;;;;;;3.23;1.80;;;15.30;72.50;;;;;;5050494;28;20285;-76
2022/09/21 05:20:06;;;;;;;6.30;2.33;;;15.30;72.30;;;;;;5053762;28;20216;-76
2022/09/21 05:22:34;;;;;;;3.77;2.00;;;15.30;72.20;;;;;;5047750;28;20461;-76
2022/09/21 05:25:03;;;;;;;5.53;2.00;;;15.40;72.20;;;;;;5050739;28;20188;-75
2022/09/21 05:27:33;;;;;;;3.60;1.70;;;15.40;72.00;;;;;;5053050;28;20739;-76
2022/09/21 05:30:01;;;;;;;3.70;1.60;;;15.40;71.90;;;;;;5045656;28;20234;-76
2022/09/21 05:32:42;;;;;;;5.07;1.80;;;15.50;71.90;;;;;;5045754;28;20188;-76
2022/09/21 05:35:20;;;;;;;3.03;1.80;;;15.50;71.70;;;;;;5038008;28;20222;-76
2022/09/21 05:37:53;;;;;;;6.03;2.00;;;15.60;71.60;;;;;;5048749;28;20236;-76
2022/09/21 05:40:22;;;;;;;6.10;2.10;;;15.60;71.40;;;;;;5049075;28;20271;-76
2022/09/21 05:42:53;;;;;;;3.10;1.47;;;15.60;71.20;;;;;;5049352;28;20191;-76
2022/09/21 05:45:22;;;;;;;6.67;1.77;;;15.70;71.10;;;;;;5045675;28;20210;-75
2022/09/21 05:48:05;;;;;;;3.03;1.60;;;15.70;70.90;;;;;;5042643;28;20698;-75
2022/09/21 05:50:44;;;;;;;3.00;1.50;;;15.80;70.80;;;;;;5046171;28;20229;-75
2022/09/21 05:53:23;;;;;;;2.63;1.60;;;15.80;70.80;;;;;;5046198;28;20710;-75
2022/09/21 05:55:56;;;;;;;6.38;2.35;;;15.80;70.50;;;;;;5051642;28;20910;-75
2022/09/21 05:58:36;;;;;;;9.70;2.57;;;15.80;70.40;;;;;;5047986;28;20269;-75
2022/09/21 06:01:17;;;;;;;9.47;2.30;;;15.90;70.20;;;;;;5051802;28;20190;-76
2022/09/21 06:03:48;;;;;;;11.20;2.30;;;15.90;70.20;;;;;;5049407;28;20198;-75
2022/09/21 06:06:17;;;;;;;4.67;2.17;;;15.90;70.10;;;;;;5048249;28;20194;-75
2022/09/21 06:08:45;;;;;;;7.67;2.03;;;16.00;70.20;;;;;;5045344;28;20276;-76
2022/09/21 06:11:14;;;;;;;9.67;2.27;;;16.00;70.20;;;;;;5046019;28;20230;-75
2022/09/21 06:13:44;;;;;;;9.80;2.50;;;16.10;70.10;;;;;;5049796;28;20737;-75
2022/09/21 06:16:12;;;;;;;7.43;1.93;;;16.10;70.00;;;;;;5051786;28;20269;-75
2022/09/21 06:18:41;;;;;;;4.17;1.90;;;16.20;70.10;;;;;;5045973;28;20534;-75
2022/09/21 06:21:10;;;;;;;5.13;1.87;;;16.20;69.90;;;;;;5042475;28;20195;-76
2022/09/21 06:23:38;;;;;;;7.73;2.07;;;16.30;69.80;;;;;;5047810;28;20227;-75
2022/09/21 06:26:06;;;;;;;5.93;2.13;;;16.30;69.60;;;;;;5047415;28;20655;-76
2022/09/21 06:28:35;;;;;;;5.17;1.87;;;16.40;69.70;;;;;;5046831;28;20261;-75
2022/09/21 06:31:04;;;;;;;3.23;1.80;;;16.40;69.40;;;;;;5050052;28;20256;-75
2022/09/21 06:33:34;;;;;;;3.73;2.10;;;16.50;69.30;;;;;;5049106;28;20214;-76
2022/09/21 06:36:03;;;;;;;6.70;1.87;;;16.60;69.20;;;;;;5051022;28;20615;-75
2022/09/21 06:38:31;;;;;;;9.13;2.23;;;16.60;69.10;;;;;;5042818;28;20191;-75
2022/09/21 06:41:02;;;;;;;4.67;1.80;;;16.70;69.00;;;;;;5052956;28;20231;-75
2022/09/21 06:43:31;;;;;;;5.00;2.20;;;16.80;69.00;;;;;;5040149;28;20223;-75
2022/09/21 06:46:01;;;;;;;3.83;1.60;;;16.90;68.90;;;;;;5045715;28;20221;-75
2022/09/21 06:48:32;;;;;;;5.00;2.13;;;16.90;68.70;;;;;;5043005;28;20226;-75
2022/09/21 06:51:03;;;;;;;3.50;2.20;;;17.00;68.40;;;;;;5045881;28;20268;-75
2022/09/21 06:53:34;;;;;;;5.97;2.30;;;17.00;68.30;;;;;;5046934;28;20499;-75
2022/09/21 06:56:03;;;;;;;3.87;2.20;;;17.20;67.90;;;;;;5046586;28;20551;-75
2022/09/21 06:58:33;;;;;;;6.67;2.00;;;17.20;67.80;;;;;;5045659;28;20187;-75
2022/09/21 07:01:08;;;;;;;6.83;1.77;;;17.20;67.50;;;;;;5048449;28;20196;-75
2022/09/21 07:03:39;;;;;;;2.83;1.50;;;17.20;67.40;;;;;;5044251;28;20186;-76
2022/09/21 07:06:10;;;;;;;4.40;2.00;;;17.30;67.30;;;;;;5044383;28;20192;-76
2022/09/21 07:08:38;;;;;;;5.30;1.70;;;17.40;67.20;;;;;;5045632;28;20585;-75
2022/09/21 07:11:27;;;;;;;5.10;1.57;;;17.40;66.80;;;;;;5042520;28;20196;-75
2022/09/21 07:13:57;;;;;;;5.10;1.30;;;17.40;66.70;;;;;;5050076;28;20199;-76
2022/09/21 07:16:26;;;;;;;4.70;1.43;;;17.50;66.40;;;;;;5048691;28;20196;-76
2022/09/21 07:18:56;;;;;;;3.07;1.60;;;17.60;66.20;;;;;;5051950;28;20223;-76
2022/09/21 07:21:37;;;;;;;4.60;1.63;;;17.60;65.80;;;;;;5043376;28;20640;-75
2022/09/21 07:24:06;;;;;;;3.10;1.50;;;17.70;65.70;;;;;;5051476;28;20240;-78
2022/09/21 07:26:40;;;;;;;2.50;1.10;;;17.80;65.50;;;;;;5036952;28;21096;-75
2022/09/21 07:29:08;;;;;;;2.13;1.07;;;18.00;65.20;;;;;;5044211;28;20284;-76
2022/09/21 07:31:36;;;;;;;3.83;1.33;;;18.10;64.70;;;;;;5047536;28;20231;-76
2022/09/21 07:34:06;;;;;;;4.13;1.40;;;18.20;64.20;;;;;;5052948;28;20281;-75
2022/09/21 07:36:35;;;;;;;1.83;1.00;;;18.20;63.90;;;;;;5054997;28;20343;-75
2022/09/21 07:39:04;;;;;;;2.63;1.20;;;18.30;63.10;;;;;;5047210;28;20223;-76
2022/09/21 07:41:33;;;;;;;3.10;0.90;;;18.40;63.10;;;;;;5051058;28;20283;-75
2022/09/21 07:44:01;;;;;;;3.33;0.73;;;18.50;62.50;;;;;;5049501;28;20214;-75
2022/09/21 07:46:30;;;;;;;4.60;0.83;;;18.50;61.70;;;;;;5054755;28;20219;-75
2022/09/21 07:48:58;;;;;;;1.73;0.77;;;18.60;61.30;;;;;;5052048;28;20251;-76
2022/09/21 07:51:28;;;;;;;1.23;0.80;;;18.70;61.20;;;;;;5050981;28;20226;-75
2022/09/21 07:53:56;;;;;;;2.23;0.90;;;18.70;60.60;;;;;;5050929;28;20607;-76
2022/09/21 07:56:25;;;;;;;3.40;1.10;;;18.80;60.10;;;;;;5053620;28;20223;-75
2022/09/21 07:59:04;;;;;;;1.87;0.70;;;18.90;59.80;;;;;;5053345;28;20234;-75
2022/09/21 08:01:34;;;;;;;1.80;0.90;;;18.90;59.70;;;;;;5054253;28;20191;-75
2022/09/21 08:04:04;;;;;;;2.30;0.90;;;19.00;59.70;;;;;;5053230;28;20252;-75
2022/09/21 08:06:35;;;;;;;4.97;0.90;;;19.10;59.20;;;;;;5052971;28;20281;-76
2022/09/21 08:09:04;;;;;;;1.33;0.80;;;19.20;59.20;;;;;;5053177;28;20258;-76
2022/09/21 08:11:33;;;;;;;2.17;0.80;;;19.30;59.10;;;;;;5052804;28;20234;-75
2022/09/21 08:14:03;;;;;;;1.40;0.60;;;19.30;58.00;;;;;;5045495;28;20663;-75
2022/09/21 08:16:32;;;;;;;1.37;0.63;;;19.30;57.30;;;;;;5045847;28;20222;-75
2022/09/21 08:19:02;;;;;;;3.13;1.10;;;19.40;57.40;;;;;;5053261;28;20201;-75
2022/09/21 08:21:30;;;;;;;1.27;0.70;;;19.40;57.30;;;;;;5045541;28;20203;-75
2022/09/21 08:24:00;;;;;;;2.83;0.80;;;19.50;57.50;;;;;;5046865;28;20619;-75
2022/09/21 08:26:28;;;;;;;2.23;0.80;;;19.60;57.40;;;;;;5045081;28;20249;-75
2022/09/21 08:28:57;;;;;;;3.17;0.70;;;19.70;57.40;;;;;;5043715;28;20274;-76
2022/09/21 08:31:26;;;;;;;3.17;1.00;;;19.70;57.30;;;;;;5052381;28;20277;-75
2022/09/21 08:33:56;;;;;;;2.27;1.00;;;19.80;57.40;;;;;;5050943;28;20231;-76
2022/09/21 08:36:25;;;;;;;1.30;0.70;;;19.90;57.40;;;;;;5050373;28;20214;-75
2022/09/21 08:38:55;;;;;;;2.57;0.80;;;20.00;57.10;;;;;;5045616;28;21053;-74
2022/09/21 08:41:47;;;;;;;2.60;0.97;;;20.00;57.00;;;;;;5051351;28;20227;-76
2022/09/21 08:44:18;;;;;;;4.90;0.80;;;20.10;56.80;;;;;;5047968;28;20713;-75
2022/09/21 08:46:51;;;;;;;2.60;1.03;;;20.20;56.70;;;;;;5045264;28;20237;-75
2022/09/21 08:49:25;;;;;;;2.43;1.00;;;20.20;56.40;;;;;;5047411;28;20338;-75
2022/09/21 08:51:56;;;;;;;1.00;0.70;;;20.20;56.50;;;;;;5045247;28;20195;-79
2022/09/21 08:54:40;;;;;;;1.33;0.70;;;20.20;56.80;;;;;;5045509;28;20531;-77
2022/09/21 08:57:13;;;;;;;2.20;0.73;;;20.30;56.80;;;;;;5021293;28;20235;-75
2022/09/21 08:59:44;;;;;;;2.03;0.60;;;20.30;56.50;;;;;;5046677;28;20597;-76
2022/09/21 09:02:46;;;;;;;1.40;0.53;;;20.30;56.10;;;;;;5049427;28;20191;-76
2022/09/21 09:05:33;;;;;;;1.77;0.70;;;20.30;55.40;;;;;;5045809;28;20191;-75
2022/09/21 09:08:30;;;;;;;2.15;0.60;;;20.30;55.30;;;;;;5048639;28;20664;-76
2022/09/21 09:11:10;;;;;;;1.20;0.77;;;20.40;55.30;;;;;;5049002;28;20246;-75
2022/09/21 09:13:54;;;;;;;2.03;0.50;;;20.40;55.00;;;;;;5047596;28;20680;-76
2022/09/21 09:16:30;;;;;;;0.60;0.47;;;20.40;54.50;;;;;;5045494;28;20210;-75
2022/09/21 09:19:03;;;;;;;2.38;0.60;;;20.40;53.90;;;;;;5047717;28;20216;-75
2022/09/21 09:21:36;;;;;;;1.85;0.52;;;20.50;53.40;;;;;;5051464;28;20253;-75
2022/09/21 09:24:09;;;;;;;1.05;0.60;;;20.40;53.80;;;;;;5043436;28;20198;-77
2022/09/21 09:26:42;;;;;;;2.35;0.60;;;20.40;53.70;;;;;;5050449;28;20241;-75
2022/09/21 09:29:20;;;;;;;0.70;0.50;;;20.30;53.20;;;;;;5045031;28;20230;-75
2022/09/21 09:31:53;;;;;;;0.82;0.50;;;20.30;53.70;;;;;;5047410;28;20620;-75
2022/09/21 09:34:24;;;;;;;0.43;0.38;;;20.30;53.80;;;;;;5025102;28;20236;-76
2022/09/21 09:36:57;;;;;;;1.50;0.90;;;20.20;53.40;;;;;;5025411;28;20184;-76
2022/09/21 09:39:29;;;;;;;2.33;0.67;;;20.30;53.30;;;;;;5022671;28;20199;-76
2022/09/21 09:42:33;;;;;;;1.00;0.57;;;20.30;53.20;;;;;;5040747;28;20229;-74
2022/09/21 09:45:38;;;;;;;1.10;0.40;;;20.30;53.40;;;;;;5030905;28;20202;-76
2022/09/21 09:48:26;;;;;;;1.00;0.60;;;20.30;54.00;;;;;;5031289;28;20652;-75
2022/09/21 09:50:55;;;;;;;0.83;0.60;;;20.40;53.60;;;;;;5021626;28;20273;-76
2022/09/21 09:53:25;;;;;;;3.77;0.90;;;20.50;53.90;;;;;;5031809;28;20191;-75
2022/09/21 09:55:55;;;;;;;0.73;0.47;;;20.50;53.40;;;;;;5027006;28;20183;-76
2022/09/21 09:58:37;;;;;;;1.67;0.50;;;20.60;53.20;;;;;;5024675;28;20189;-76
2022/09/21 10:01:07;;;;;;;1.08;0.52;;;20.60;53.30;;;;;;5026183;28;20710;-75
2022/09/21 10:03:36;;;;;;;0.98;0.60;;;20.60;53.20;;;;;;5028618;28;20238;-74
2022/09/21 10:06:04;;;;;;;0.60;0.50;;;20.70;53.10;;;;;;5022127;28;20200;-75
2022/09/21 10:08:45;;;;;;;1.08;0.65;;;20.70;53.10;;;;;;5022874;28;20250;-74
2022/09/21 10:11:15;;;;;;;1.40;0.50;;;20.90;52.90;;;;;;5027637;28;20195;-75
2022/09/21 10:13:45;;;;;;;0.82;0.40;;;20.90;52.50;;;;;;5031052;28;20622;-74
2022/09/21 10:16:20;;;;;;;1.13;0.40;;;21.00;52.30;;;;;;5022549;28;20617;-76
2022/09/21 10:18:51;;;;;;;1.20;0.52;;;21.10;51.50;;;;;;5021992;28;20663;-75
2022/09/21 10:21:22;;;;;;;0.30;0.30;;;21.10;50.90;;;;;;5028651;28;20195;-75
2022/09/21 10:23:53;;;;;;;0.88;0.60;;;21.10;51.20;;;;;;5034104;28;20194;-75
2022/09/21 10:26:22;;;;;;;0.47;0.40;;;21.20;51.40;;;;;;5030568;28;20226;-75
2022/09/21 10:29:01;;;;;;;0.75;0.40;;;21.20;51.50;;;;;;5018558;28;20187;-76
2022/09/21 10:31:32;;;;;;;0.50;0.47;;;21.30;51.10;;;;;;5023793;28;20188;-75
2022/09/21 10:34:14;;;;;;;3.55;0.60;;;21.30;51.10;;;;;;5027783;28;20226;-75
2022/09/21 10:36:50;;;;;;;2.33;0.60;;;21.40;51.20;;;;;;5021799;28;20187;-75
2022/09/21 10:39:21;;;;;;;0.70;0.50;;;21.30;50.80;;;;;;5028587;28;20184;-75
2022/09/21 10:41:51;;;;;;;0.52;0.40;;;21.40;51.00;;;;;;5023954;28;20973;-75
2022/09/21 10:44:22;;;;;;;0.40;0.30;;;21.50;50.70;;;;;;5017909;28;20275;-76
2022/09/21 10:46:53;;;;;;;0.50;0.40;;;21.50;50.60;;;;;;5025375;28;20227;-75
2022/09/21 10:49:24;;;;;;;3.63;0.50;;;21.60;50.40;;;;;;5031098;28;20196;-74
2022/09/21 10:51:54;;;;;;;0.38;0.38;;;21.60;50.20;;;;;;5022176;28;20285;-75
2022/09/21 10:54:27;;;;;;;0.82;0.35;;;21.60;49.90;;;;;;5026601;28;20268;-74
2022/09/21 10:56:59;;;;;;;0.40;0.40;;;21.60;49.00;;;;;;5027695;28;20218;-76
2022/09/21 10:59:29;;;;;;;0.30;0.30;;;21.70;49.40;;;;;;5020155;28;20231;-74
2022/09/21 11:02:00;;;;;;;0.85;0.40;;;21.70;49.00;;;;;;5020662;28;20219;-74
2022/09/21 11:04:38;;;;;;;0.50;0.40;;;21.70;48.10;;;;;;5029084;28;20188;-74
2022/09/21 11:07:17;;;;;;;0.38;0.38;;;21.80;48.60;;;;;;5028467;28;20726;-74
2022/09/21 11:09:51;;;;;;;0.40;0.40;;;21.80;48.80;;;;;;5037311;28;20243;-74
2022/09/21 11:12:41;;;;;;;1.20;0.50;;;21.80;48.20;;;;;;5028416;28;20227;-75
2022/09/21 11:15:20;;;;;;;0.70;0.40;;;21.80;48.50;;;;;;5031284;28;20290;-74
2022/09/21 11:18:02;;;;;;;1.10;0.50;;;21.90;48.50;;;;;;5032572;28;20219;-76
2022/09/21 11:20:39;;;;;;;2.03;0.50;;;21.90;48.20;;;;;;5032968;28;20233;-76
2022/09/21 11:23:21;;;;;;;4.65;0.50;;;21.90;47.70;;;;;;5035389;28;20195;-74
2022/09/21 11:25:56;;;;;;;0.75;0.50;;;21.90;48.10;;;;;;5028739;28;20269;-74
2022/09/21 11:28:32;;;;;;;0.82;0.50;;;21.90;48.30;;;;;;5024049;28;20231;-74
2022/09/21 11:31:24;;;;;;;3.45;0.50;;;22.00;48.10;;;;;;5031788;28;20211;-74
2022/09/21 11:34:13;;;;;;;1.60;0.50;;;22.00;48.20;;;;;;5024902;28;20277;-75
2022/09/21 11:36:51;;;;;;;1.27;0.63;;;22.00;48.30;;;;;;5030205;28;20248;-75
2022/09/21 11:39:27;;;;;;;0.52;0.40;;;22.10;48.00;;;;;;5024128;28;20190;-74
2022/09/21 11:42:08;;;;;;;0.77;0.50;;;22.10;47.90;;;;;;5042196;28;20885;-75
2022/09/21 11:44:54;;;;;;;0.60;0.40;;;22.20;48.20;;;;;;5026765;28;20211;-75
2022/09/21 11:47:41;;;;;;;0.50;0.40;;;22.20;48.10;;;;;;5033351;28;20578;-75
2022/09/21 11:50:26;;;;;;;0.40;0.40;;;22.10;47.80;;;;;;5024032;28;21084;-74
2022/09/21 11:53:11;;;;;;;0.93;0.50;;;22.10;47.80;;;;;;5029958;28;20739;-75
2022/09/21 11:55:54;;;;;;;0.50;0.40;;;22.20;47.50;;;;;;5025959;28;20188;-75
2022/09/21 11:58:31;;;;;;;0.95;0.50;;;22.20;48.30;;;;;;5027037;28;20224;-75
2022/09/21 12:01:08;;;;;;;1.40;0.57;;;22.30;47.90;;;;;;5028300;28;20669;-75
2022/09/21 12:04:02;;;;;;;1.38;0.50;;;22.40;48.10;;;;;;5020891;28;20227;-75
2022/09/21 12:06:43;;;;;;;2.80;0.40;;;22.50;48.10;;;;;;5025551;28;20227;-75
2022/09/21 12:09:43;;;;;;;0.65;0.38;;;22.50;48.10;;;;;;5028846;28;20216;-74
2022/09/21 12:12:16;;;;;;;1.55;0.77;;;22.50;47.90;;;;;;5030990;28;20224;-74
2022/09/21 12:14:52;;;;;;;0.93;0.40;;;22.50;47.00;;;;;;5027951;28;20191;-75
2022/09/21 12:17:27;;;;;;;0.70;0.40;;;22.50;46.90;;;;;;5030366;28;20206;-75
2022/09/21 12:20:01;;;;;;;2.45;0.50;;;22.40;46.80;;;;;;5028684;28;20187;-74
2022/09/21 12:22:35;;;;;;;2.72;0.52;;;22.40;46.80;;;;;;5044239;28;20739;-75
2022/09/21 12:25:11;;;;;;;0.75;0.55;;;22.30;46.50;;;;;;5026513;28;20242;-75
2022/09/21 12:27:42;;;;;;;0.98;0.45;;;22.30;46.70;;;;;;5036314;28;20219;-74
2022/09/21 12:30:15;;;;;;;0.30;0.30;;;22.20;46.60;;;;;;5027958;28;20225;-75
2022/09/21 12:32:52;;;;;;;2.88;0.70;;;22.20;46.60;;;;;;5039602;28;20188;-74
2022/09/21 12:35:26;;;;;;;0.63;0.50;;;22.20;46.60;;;;;;5041922;28;20199;-75
2022/09/21 12:38:01;;;;;;;0.95;0.50;;;22.10;46.60;;;;;;5025650;28;20201;-74
2022/09/21 12:40:38;;;;;;;1.52;0.40;;;22.10;46.50;;;;;;5032842;28;20232;-76
2022/09/21 12:43:20;;;;;;;0.40;0.40;;;22.00;46.50;;;;;;5027033;28;20199;-75
2022/09/21 12:45:55;;;;;;;0.82;0.40;;;22.00;46.60;;;;;;5024992;28;20282;-75
2022/09/21 12:48:32;;;;;;;0.90;0.40;;;22.00;46.90;;;;;;5024834;28;20214;-76
2022/09/21 12:51:10;;;;;;;0.70;0.50;;;22.00;47.10;;;;;;5023874;28;20313;-75
2022/09/21 12:53:44;;;;;;;1.67;0.60;;;22.00;47.20;;;;;;5021557;28;20627;-75
2022/09/21 12:56:29;;;;;;;1.20;0.50;;;21.90;47.30;;;;;;5026338;28;20192;-74
2022/09/21 12:59:08;;;;;;;0.60;0.50;;;21.90;47.70;;;;;;5030894;28;20227;-74
2022/09/21 13:01:43;;;;;;;3.03;0.40;;;21.80;47.50;;;;;;5028839;28;20625;-74
2022/09/21 13:04:33;;;;;;;0.73;0.60;;;21.70;47.50;;;;;;5032180;28;20564;-75
2022/09/21 13:07:40;;;;;;;1.42;0.50;;;21.70;47.80;;;;;;5027562;28;20239;-74
2022/09/21 13:10:20;;;;;;;1.48;0.40;;;21.70;47.90;;;;;;5012220;28;20207;-74
2022/09/21 13:13:07;;;;;;;0.73;0.50;;;21.70;48.00;;;;;;5027433;28;20784;-74
2022/09/21 13:15:44;;;;;;;2.60;0.63;;;21.80;48.10;;;;;;5029580;28;20195;-75
2022/09/21 13:18:23;;;;;;;0.70;0.40;;;21.80;48.10;;;;;;5025337;28;20211;-75